createdAt,value
2019-01-24T05:04:48.714Z,100839.42
2019-01-24T05:07:19.249Z,100840.63
2019-01-24T05:09:49.807Z,100845.31
2019-01-24T05:12:20.398Z,100849.63
2019-01-24T05:14:50.978Z,100836.94
2019-01-24T05:17:25.723Z,100846.42
2019-01-24T05:19:56.296Z,100845.28
2019-01-24T05:22:26.804Z,100847.73
2019-01-24T05:24:57.428Z,100854.85
2019-01-24T05:27:28.088Z,100853.96
2019-01-24T05:29:58.714Z,100857.66
2019-01-24T05:32:29.318Z,100848.44
2019-01-24T05:34:59.926Z,100856.02
2019-01-24T05:37:30.468Z,100846.84
2019-01-24T05:40:01.041Z,100858.10
2019-01-24T05:42:31.635Z,100858.44
2019-01-24T05:45:02.244Z,100858.41
2019-01-24T05:47:32.822Z,100858.47
2019-01-24T05:50:03.401Z,100857.06
2019-01-24T05:52:33.971Z,100859.39
2019-01-24T05:55:05.181Z,100866.91
2019-01-24T05:57:35.754Z,100868.69
2019-01-24T06:00:09.916Z,100860.52
2019-01-24T06:02:40.527Z,100861.07
2019-01-24T06:05:12.282Z,100862.03
2019-01-24T06:07:42.902Z,100867.05
2019-01-24T06:10:15.274Z,100874.75
2019-01-24T06:12:45.851Z,100879.36
2019-01-24T06:15:17.129Z,100891.55
2019-01-24T06:17:47.942Z,100892.02
2019-01-24T06:20:18.464Z,100892.52
2019-01-24T06:22:49.066Z,100901.61
2019-01-24T06:25:19.700Z,100904.58
2019-01-24T06:27:50.280Z,100905.38
2019-01-24T06:30:21.549Z,100896.94
2019-01-24T06:32:52.162Z,100897.92
2019-01-24T06:35:22.723Z,100905.96
2019-01-24T06:37:53.650Z,100904.52
2019-01-24T06:40:24.239Z,100897.89
2019-01-24T06:42:54.881Z,100908.75
2019-01-24T06:45:25.986Z,100908.20
2019-01-24T06:47:56.563Z,100906.33
2019-01-24T06:50:27.130Z,100901.78
2019-01-24T06:52:57.764Z,100901.41
2019-01-24T06:55:30.032Z,100908.59
2019-01-24T06:58:00.608Z,100905.74
2019-01-24T07:00:31.251Z,100913.14
2019-01-24T07:03:01.831Z,100906.77
2019-01-24T07:05:32.380Z,100912.44
2019-01-24T07:08:03.074Z,100914.89
2019-01-24T07:10:33.671Z,100916.52
2019-01-24T07:13:04.283Z,100916.52
2019-01-24T07:15:34.887Z,100919.34
2019-01-24T07:18:05.540Z,100929.16
2019-01-24T07:20:36.086Z,100936.68
2019-01-24T07:23:06.759Z,100929.28
2019-01-24T07:25:37.411Z,100938.89
2019-01-24T07:28:07.983Z,100941.02
2019-01-24T07:30:38.649Z,100950.28
2019-01-24T07:33:09.226Z,100944.05
2019-01-24T07:35:39.753Z,100942.00
2019-01-24T07:38:10.421Z,100940.31
2019-01-24T07:40:40.996Z,100939.89
2019-01-24T07:43:11.567Z,100947.23
2019-01-24T07:45:43.180Z,100947.95
2019-01-24T07:48:13.780Z,100947.59
2019-01-24T07:50:44.413Z,100958.02
2019-01-24T07:53:15.004Z,100953.05
2019-01-24T07:55:45.667Z,100960.27
2019-01-24T07:58:16.285Z,100961.00
2019-01-24T08:00:47.018Z,100961.00
2019-01-24T08:03:17.626Z,100964.54
2019-01-24T08:05:48.177Z,100967.34
2019-01-24T08:08:18.804Z,100975.59
2019-01-24T08:10:49.347Z,100978.20
2019-01-24T08:13:19.902Z,100976.67
2019-01-24T08:15:50.703Z,100990.31
2019-01-24T08:18:21.481Z,100984.98
2019-01-24T08:20:51.993Z,100987.50
2019-01-24T08:23:22.552Z,100984.75
2019-01-24T08:25:53.005Z,100989.75
2019-01-24T08:28:23.612Z,100995.23
2019-01-24T08:30:54.249Z,100991.73
2019-01-24T08:33:24.817Z,100994.31
2019-01-24T08:35:55.353Z,100992.81
2019-01-24T08:38:25.952Z,100998.28
2019-01-24T08:40:56.485Z,101000.75
2019-01-24T08:43:27.189Z,101003.08
2019-01-24T08:45:57.833Z,101005.59
2019-01-24T08:48:28.548Z,101003.31
2019-01-24T08:50:59.102Z,101005.72
2019-01-24T08:53:29.838Z,101012.41
2019-01-24T08:56:00.403Z,101010.80
2019-01-24T08:58:30.926Z,101017.11
2019-01-24T09:01:01.662Z,101017.69
2019-01-24T09:03:32.263Z,101014.64
2019-01-24T09:06:03.537Z,101010.48
2019-01-24T09:08:34.222Z,101011.70
2019-01-24T09:11:04.774Z,101012.73
2019-01-24T09:13:35.361Z,101015.67
2019-01-24T09:16:06.170Z,101014.38
2019-01-24T09:18:36.698Z,101019.41
2019-01-24T09:21:07.716Z,101025.11
2019-01-24T09:23:38.334Z,101021.63
2019-01-24T09:26:08.912Z,101026.00
2019-01-24T09:28:39.465Z,101022.82
2019-01-24T09:31:10.135Z,101031.31
2019-01-24T09:33:40.638Z,101041.84
2019-01-24T09:36:11.243Z,101034.23
2019-01-24T10:05:55.358Z,101032.48
2019-01-24T10:08:25.964Z,101036.14
2019-01-24T10:10:56.591Z,101045.93
2019-01-24T10:13:27.264Z,101035.09
2019-01-24T10:15:58.090Z,101043.92
2019-01-24T10:18:28.630Z,101049.16
2019-01-24T10:20:59.310Z,101045.51
2019-01-24T10:23:29.983Z,101046.30
2019-01-24T10:26:01.104Z,101054.73
2019-01-24T10:28:31.810Z,101054.01
2019-01-24T10:31:02.366Z,101051.99
2019-01-24T10:33:32.907Z,101053.34
2019-01-24T10:36:03.500Z,101061.02
2019-01-24T10:38:34.106Z,101061.02
2019-01-24T10:41:04.661Z,101055.20
2019-01-24T10:43:35.256Z,101053.12
2019-01-24T10:46:05.904Z,101040.41
2019-01-24T10:48:36.462Z,101038.80
2019-01-24T10:51:07.050Z,101034.70
2019-01-24T10:53:37.622Z,101040.34
2019-01-24T10:56:08.435Z,101039.98
2019-01-24T10:58:39.001Z,101035.95
2019-01-24T11:01:09.636Z,101044.32
2019-01-24T11:03:40.172Z,101048.59
2019-01-24T11:06:10.808Z,101044.30
2019-01-24T11:08:41.352Z,101040.55
2019-01-24T11:11:11.859Z,101045.05
2019-01-24T11:13:42.479Z,101042.78
2019-01-24T11:16:12.993Z,101035.49
2019-01-24T11:18:43.550Z,101041.73
2019-01-24T11:21:14.113Z,101033.61
2019-01-24T11:23:44.713Z,101033.30
2019-01-24T11:26:15.230Z,101031.28
2019-01-24T11:28:45.799Z,101035.37
2019-01-24T11:31:16.341Z,101027.05
2019-01-24T11:33:46.828Z,101034.55
2019-01-24T11:36:17.442Z,101029.06
2019-01-24T11:38:47.938Z,101031.69
2019-01-24T11:41:18.541Z,101028.71
2019-01-24T11:43:49.145Z,101027.81
2019-01-24T11:46:19.646Z,101035.50
2019-01-24T11:48:50.132Z,101028.20
2019-01-24T11:51:20.664Z,101035.42
2019-01-24T11:53:53.172Z,101035.06
2019-01-24T11:56:23.670Z,101025.05
2019-01-24T11:58:54.169Z,101027.16
2019-01-24T12:01:24.795Z,101034.41
2019-01-24T12:03:55.399Z,101023.58
2019-01-24T12:06:25.961Z,101029.63
2019-01-24T12:08:56.508Z,101021.39
2019-01-24T12:11:27.077Z,101026.30
2019-01-24T12:13:57.595Z,101024.82
2019-01-24T12:16:28.255Z,101027.64
2019-01-24T12:18:58.814Z,101021.19
2019-01-24T12:21:29.398Z,101021.11
2019-01-24T12:23:59.965Z,101019.98
2019-01-24T12:26:30.587Z,101019.70
2019-01-24T12:29:01.095Z,101015.91
2019-01-24T12:31:31.711Z,101018.88
2019-01-24T12:34:02.343Z,101013.59
2019-01-24T12:36:32.868Z,101015.16
2019-01-24T12:39:04.767Z,101018.05
2019-01-24T12:41:35.333Z,101019.27
2019-01-24T12:44:06.247Z,101014.92
2019-01-24T12:46:36.898Z,101023.46
2019-01-24T12:49:07.535Z,101028.17
2019-01-24T12:51:38.683Z,101027.08
2019-01-24T12:54:09.354Z,101019.46
2019-01-24T12:56:39.924Z,101027.88
2019-01-24T12:59:10.520Z,101017.52
2019-01-24T13:01:41.061Z,101023.00
2019-01-24T13:04:11.615Z,101018.05
2019-01-24T13:06:42.145Z,101019.28
2019-01-24T13:09:12.729Z,101019.38
2019-01-24T13:11:43.273Z,101018.18
2019-01-24T13:14:13.822Z,101018.28
2019-01-24T13:16:44.336Z,101022.77
2019-01-24T13:19:14.867Z,101025.05
2019-01-24T13:21:45.411Z,101024.17
2019-01-24T13:24:15.931Z,101016.19
2019-01-24T13:26:46.484Z,101011.09
2019-01-24T13:29:17.141Z,101008.34
2019-01-24T13:31:47.627Z,101017.41
2019-01-24T13:34:18.231Z,101022.47
2019-01-24T13:36:48.788Z,101019.57
2019-01-24T13:39:19.371Z,101019.09
2019-01-24T13:41:53.012Z,101016.45
2019-01-24T13:44:23.611Z,101025.51
2019-01-24T13:46:54.155Z,101024.48
2019-01-24T13:49:24.805Z,101022.06
2019-01-24T13:51:55.507Z,101033.64
2019-01-24T13:54:26.075Z,101023.16
2019-01-24T13:56:58.341Z,101023.36
2019-01-24T13:59:29.037Z,101020.36
2019-01-24T14:01:59.665Z,101021.36
2019-01-24T14:04:36.888Z,101023.84
2019-01-24T14:07:07.419Z,101026.34
2019-01-24T14:09:37.935Z,101026.34
2019-01-24T14:12:08.468Z,101025.25
2019-01-24T14:14:39.021Z,101024.66
2019-01-24T14:17:09.562Z,101027.69
2019-01-24T14:19:40.095Z,101020.75
2019-01-24T14:22:10.611Z,101023.80
2019-01-24T14:24:41.162Z,101021.62
2019-01-24T14:27:11.742Z,101015.75
2019-01-24T14:29:42.292Z,101016.76
2019-01-24T14:32:12.795Z,101012.87
2019-01-24T14:34:43.390Z,101012.57
2019-01-24T14:37:14.449Z,101009.92
2019-01-24T14:39:45.072Z,101016.48
2019-01-24T14:42:15.605Z,101013.27
2019-01-24T14:44:46.153Z,101018.17
2019-01-24T14:47:16.723Z,101019.90
2019-01-24T14:49:47.337Z,101025.70
2019-01-24T14:52:17.876Z,101031.78
2019-01-24T14:54:48.461Z,101031.97
2019-01-24T14:57:18.986Z,101032.36
2019-01-24T14:59:49.559Z,101037.73
2019-01-24T15:02:20.056Z,101040.75
2019-01-24T15:04:50.584Z,101050.27
2019-01-24T15:07:21.167Z,101049.26
2019-01-24T15:09:51.696Z,101047.97
2019-01-24T15:12:22.259Z,101045.73
2019-01-24T15:14:52.784Z,101049.97
2019-01-24T15:17:23.416Z,101060.19
2019-01-24T15:19:54.003Z,101061.71
2019-01-24T15:22:24.540Z,101066.47
2019-01-24T15:24:55.041Z,101061.27
2019-01-24T15:27:25.681Z,101066.39
2019-01-24T15:29:56.224Z,101070.27
2019-01-24T15:32:26.789Z,101068.70
2019-01-24T15:34:57.341Z,101069.27
2019-01-24T15:37:27.916Z,101074.63
2019-01-24T15:39:58.491Z,101069.23
2019-01-24T15:42:29.125Z,101074.91
2019-01-24T15:44:59.662Z,101074.55
2019-01-24T15:47:30.244Z,101085.11
2019-01-24T15:50:00.847Z,101076.37
2019-01-24T15:52:34.089Z,101077.45
2019-01-24T15:55:04.061Z,101082.77
2019-01-24T15:57:40.680Z,101079.28
2019-01-24T16:00:18.171Z,101086.03
2019-01-24T16:02:48.801Z,101093.32
2019-01-24T16:05:19.474Z,101090.13
2019-01-24T16:07:50.179Z,101089.22
2019-01-24T16:10:24.531Z,101083.88
2019-01-24T16:12:55.457Z,101089.45
2019-01-24T16:15:37.960Z,101094.58
2019-01-24T16:18:15.351Z,101103.45
2019-01-24T16:20:46.490Z,101109.45
2019-01-24T16:23:17.038Z,101113.01
2019-01-24T16:25:51.068Z,101112.61
2019-01-24T16:28:24.768Z,101113.01
2019-01-24T16:30:56.647Z,101119.91
2019-01-24T16:33:29.250Z,101116.56
2019-01-24T16:36:00.033Z,101117.28
2019-01-24T16:38:31.610Z,101112.61
2019-01-24T16:41:04.474Z,101115.81
2019-01-24T16:43:35.554Z,101114.08
2019-01-24T16:46:08.065Z,101117.14
2019-01-24T16:48:39.823Z,101118.86
2019-01-24T16:51:10.972Z,101127.12
2019-01-24T16:53:41.906Z,101126.22
2019-01-24T16:56:12.595Z,101124.97
2019-01-24T16:58:43.227Z,101129.06
2019-01-24T17:01:23.102Z,101128.34
2019-01-24T17:03:53.821Z,101128.37
2019-01-24T17:06:24.757Z,101131.20
2019-01-24T17:08:56.615Z,101130.84
2019-01-24T17:11:27.246Z,101136.92
2019-01-24T17:13:58.061Z,101129.89
2019-01-24T17:16:28.766Z,101128.77
2019-01-24T17:19:00.554Z,101132.40
2019-01-24T17:21:31.605Z,101136.20
2019-01-24T17:24:06.269Z,101129.06
2019-01-24T17:26:36.917Z,101137.03
2019-01-24T17:29:07.970Z,101128.70
2019-01-24T17:31:42.951Z,101127.30
2019-01-24T17:34:14.003Z,101128.52
2019-01-24T17:36:44.748Z,101126.33
2019-01-24T17:39:15.362Z,101134.19
2019-01-24T17:41:46.880Z,101134.91
2019-01-24T17:44:17.589Z,101137.14
2019-01-24T17:46:48.502Z,101133.23
2019-01-24T17:49:19.092Z,101137.90
2019-01-24T17:51:51.240Z,101139.26
2019-01-24T17:54:24.412Z,101139.58
2019-01-24T17:57:01.357Z,101129.28
2019-01-24T17:59:32.163Z,101134.09
2019-01-24T18:02:03.702Z,101124.97
2019-01-24T18:04:34.830Z,101120.44
2019-01-24T18:10:21.772Z,101128.13
2019-01-24T18:12:54.322Z,101130.78
2019-01-24T18:15:31.302Z,101139.36
2019-01-24T18:18:04.598Z,101132.80
2019-01-24T18:20:35.813Z,101135.84
2019-01-24T18:23:08.377Z,101139.26
2019-01-24T18:25:58.640Z,101137.64
2019-01-24T18:28:29.475Z,101143.97
2019-01-24T18:33:54.592Z,101145.05
2019-01-24T18:44:26.994Z,101169.96
2019-01-24T18:46:58.699Z,101173.20
2019-01-24T18:49:30.177Z,101176.03
2019-01-24T18:52:06.198Z,101173.38
2019-01-24T18:54:37.940Z,101187.00
2019-01-24T18:57:21.807Z,101183.78
2019-01-24T19:05:13.568Z,101185.80
2019-01-24T19:07:45.126Z,101187.34
2019-01-24T19:10:19.989Z,101183.38
2019-01-24T19:12:52.898Z,101184.30
2019-01-24T19:15:25.990Z,101186.06
2019-01-24T19:18:00.015Z,101176.05
2019-01-24T19:20:31.737Z,101180.39
2019-01-24T19:23:05.576Z,101190.74
2019-01-24T19:25:39.091Z,101188.12
2019-01-24T19:28:13.839Z,101192.90
2019-01-24T19:30:46.716Z,101198.64
2019-01-24T19:33:18.569Z,101199.31
2019-01-24T19:35:50.606Z,101203.34
2019-01-24T19:38:52.881Z,101205.35
2019-01-24T19:41:37.099Z,101198.59
2019-01-24T19:44:08.271Z,101197.66
2019-01-24T19:46:42.001Z,101206.00
2019-01-24T19:49:15.948Z,101206.73
2019-01-24T19:51:48.216Z,101209.09
2019-01-24T19:54:19.024Z,101208.37
2019-01-24T19:56:52.371Z,101216.03
2019-01-24T19:59:23.108Z,101215.20
2019-01-24T20:01:54.302Z,101215.59
2019-01-24T20:04:30.183Z,101216.57
2019-01-24T20:07:00.812Z,101215.06
2019-01-24T20:09:32.790Z,101213.87
2019-01-24T20:12:06.563Z,101216.98
2019-01-24T20:14:38.343Z,101214.33
2019-01-24T20:17:26.394Z,101217.88
2019-01-24T20:19:59.667Z,101220.00
2019-01-24T20:22:55.975Z,101215.20
2019-01-24T20:25:30.135Z,101211.28
2019-01-24T20:28:02.807Z,101215.70
2019-01-24T20:36:19.987Z,101226.70
2019-01-24T20:41:53.440Z,101221.08
2019-01-24T20:44:26.775Z,101219.81
2019-01-24T20:47:06.433Z,101225.45
2019-01-24T20:49:39.867Z,101225.88
2019-01-24T20:52:15.969Z,101221.11
2019-01-24T20:54:50.054Z,101223.92
2019-01-24T20:57:23.364Z,101226.25
2019-01-24T21:00:13.671Z,101224.86
2019-01-24T21:02:50.378Z,101219.65
2019-01-24T21:05:22.491Z,101210.03
2019-01-24T21:07:57.748Z,101215.17
2019-01-24T21:10:29.448Z,101211.27
2019-01-24T21:13:01.219Z,101211.83
2019-01-24T21:15:33.538Z,101218.30
2019-01-24T21:18:04.963Z,101217.50
2019-01-24T21:20:35.528Z,101213.69
2019-01-24T21:23:06.528Z,101213.19
2019-01-24T21:25:37.053Z,101209.74
2019-01-24T21:28:07.773Z,101205.69
2019-01-24T21:30:38.898Z,101202.47
2019-01-24T21:33:09.848Z,101205.12
2019-01-24T21:35:40.397Z,101216.07
2019-01-24T21:38:11.350Z,101207.95
2019-01-24T21:40:41.906Z,101211.03
2019-01-24T21:43:12.546Z,101209.64
2019-01-24T21:45:43.068Z,101212.48
2019-01-24T21:48:13.591Z,101212.13
2019-01-24T21:50:44.180Z,101214.64
2019-01-24T21:53:14.759Z,101217.66
2019-01-24T21:55:45.404Z,101215.70
2019-01-24T21:58:15.994Z,101221.94
2019-01-24T22:00:46.720Z,101224.48
2019-01-24T22:03:17.340Z,101219.25
2019-01-24T22:05:47.955Z,101216.67
2019-01-24T22:08:18.622Z,101218.30
2019-01-24T22:10:49.214Z,101224.82
2019-01-24T22:13:19.808Z,101226.05
2019-01-24T22:15:50.406Z,101229.13
2019-01-24T22:18:20.988Z,101223.05
2019-01-24T22:20:55.582Z,101222.00
2019-01-24T22:23:23.876Z,101218.30
2019-01-24T22:25:54.494Z,101224.36
2019-01-24T22:28:25.055Z,101220.55
2019-01-24T22:30:57.834Z,101228.30
2019-01-24T22:33:28.451Z,101229.85
2019-01-24T22:35:58.990Z,101225.94
2019-01-24T22:38:29.577Z,101222.07
2019-01-24T22:41:00.143Z,101229.00
2019-01-24T22:43:30.723Z,101229.79
2019-01-24T22:46:01.327Z,101233.97
2019-01-24T22:48:31.915Z,101227.61
2019-01-24T22:51:02.484Z,101231.38
2019-01-24T22:53:34.592Z,101227.44
2019-01-24T22:56:05.304Z,101226.64
2019-01-24T22:58:35.830Z,101227.64
2019-01-24T23:01:45.751Z,101227.57
2019-01-24T23:04:25.424Z,101228.63
2019-01-24T23:06:56.050Z,101236.62
2019-01-24T23:09:26.542Z,101237.00
2019-01-24T23:11:57.066Z,101237.73
2019-01-24T23:14:27.686Z,101232.91
2019-01-24T23:16:58.260Z,101240.33
2019-01-24T23:19:28.849Z,101233.05
2019-01-24T23:21:59.456Z,101235.33
2019-01-24T23:24:30.000Z,101236.75
2019-01-24T23:27:00.543Z,101241.85
2019-01-24T23:29:31.114Z,101245.41
2019-01-24T23:32:01.652Z,101236.06
2019-01-24T23:34:32.199Z,101236.69
2019-01-24T23:37:02.780Z,101238.08
2019-01-24T23:39:33.362Z,101242.05
2019-01-24T23:42:03.947Z,101242.05
2019-01-24T23:44:34.530Z,101246.56
2019-01-24T23:47:05.112Z,101243.02
2019-01-24T23:49:35.623Z,101241.23
2019-01-24T23:52:06.277Z,101243.84
2019-01-24T23:54:36.816Z,101243.95
2019-01-24T23:57:07.359Z,101241.16
2019-01-24T23:59:37.943Z,101232.18
